createdAt,value
2022-09-27T00:00:36.123Z,7.50
2022-09-27T00:03:03.141Z,6.10
2022-09-27T00:05:30.277Z,6.60
2022-09-27T00:07:57.191Z,7.10
2022-09-27T00:10:24.078Z,4.10
2022-09-27T00:12:52.292Z,5.60
2022-09-27T00:15:19.456Z,12.80
2022-09-27T00:17:46.438Z,9.80
2022-09-27T00:20:13.388Z,15.10
2022-09-27T00:22:40.336Z,17.10
2022-09-27T00:25:08.203Z,7.90
2022-09-27T00:27:35.168Z,11.30
2022-09-27T00:30:02.583Z,9.00
2022-09-27T00:32:29.641Z,10.00
2022-09-27T00:34:56.791Z,9.90
2022-09-27T00:37:23.941Z,7.20
2022-09-27T00:39:50.888Z,8.10
2022-09-27T00:42:17.940Z,3.30
2022-09-27T00:44:58.397Z,5.40
2022-09-27T00:47:30.935Z,3.10
2022-09-27T00:50:17.680Z,4.20
2022-09-27T00:53:10.947Z,4.00
2022-09-27T00:55:45.599Z,6.40
2022-09-27T00:58:13.390Z,4.40
2022-09-27T01:00:42.739Z,3.10
2022-09-27T01:03:09.588Z,5.00
2022-09-27T01:05:36.522Z,4.40
2022-09-27T01:08:04.387Z,4.10
2022-09-27T01:10:34.659Z,4.10
2022-09-27T01:13:06.619Z,6.10
2022-09-27T01:15:54.369Z,2.90
2022-09-27T01:18:25.243Z,2.80
2022-09-27T01:21:30.587Z,3.80
2022-09-27T01:24:13.098Z,3.20
2022-09-27T01:27:11.478Z,6.00
2022-09-27T01:29:57.164Z,6.10
2022-09-27T01:32:51.796Z,5.60
2022-09-27T01:35:44.288Z,4.10
2022-09-27T01:38:23.819Z,6.90
2022-09-27T01:40:56.515Z,7.90
2022-09-27T01:43:50.092Z,12.20
2022-09-27T01:46:25.838Z,12.90
2022-09-27T01:49:17.365Z,5.60
2022-09-27T01:51:47.511Z,5.40
2022-09-27T01:54:19.405Z,5.20
2022-09-27T01:57:07.485Z,5.00
2022-09-27T01:59:56.972Z,5.80
2022-09-27T02:02:51.076Z,6.80
2022-09-27T02:05:36.503Z,5.10
2022-09-27T02:08:46.968Z,7.40
2022-09-27T02:11:22.142Z,6.70
2022-09-27T02:14:09.633Z,9.60
2022-09-27T02:17:05.468Z,6.50
2022-09-27T02:19:35.082Z,6.20
2022-09-27T02:22:16.153Z,4.30
2022-09-27T02:24:47.685Z,4.80
2022-09-27T02:27:27.014Z,4.80
2022-09-27T02:30:01.071Z,7.40
2022-09-27T02:32:29.533Z,6.80
2022-09-27T02:34:57.790Z,5.90
2022-09-27T02:37:24.857Z,7.30
2022-09-27T02:39:51.804Z,4.90
2022-09-27T02:42:19.074Z,4.30
2022-09-27T02:44:46.203Z,6.00
2022-09-27T02:47:28.512Z,4.10
2022-09-27T02:50:18.833Z,9.30
2022-09-27T02:53:08.206Z,5.40
2022-09-27T02:55:47.168Z,5.80
2022-09-27T02:59:03.404Z,5.20
2022-09-27T03:02:11.149Z,5.00
2022-09-27T03:05:13.506Z,4.90
2022-09-27T03:07:40.625Z,6.70
2022-09-27T03:10:07.819Z,5.50
2022-09-27T03:12:34.924Z,5.90
2022-09-27T03:15:02.001Z,7.40
2022-09-27T03:17:47.552Z,5.80
2022-09-27T03:20:33.528Z,8.80
2022-09-27T03:23:11.325Z,7.20
2022-09-27T03:25:38.225Z,5.90
2022-09-27T03:28:05.229Z,6.00
2022-09-27T03:30:32.529Z,5.60
2022-09-27T03:32:59.442Z,4.60
2022-09-27T03:35:44.637Z,9.10
2022-09-27T03:38:11.738Z,4.70
2022-09-27T03:40:39.226Z,9.10
2022-09-27T03:43:06.671Z,9.30
2022-09-27T03:45:33.857Z,4.20
2022-09-27T03:48:04.693Z,5.50
2022-09-27T03:50:31.797Z,10.00
2022-09-27T03:52:58.848Z,5.30
2022-09-27T03:55:26.508Z,7.90
2022-09-27T03:57:53.817Z,12.10
2022-09-27T04:00:21.662Z,12.00
2022-09-27T04:02:49.048Z,6.40
2022-09-27T04:05:36.714Z,4.90
2022-09-27T04:08:07.989Z,6.30
2022-09-27T04:10:34.868Z,9.40
2022-09-27T04:13:01.754Z,8.50
2022-09-27T04:15:32.247Z,9.00
2022-09-27T04:18:31.530Z,7.90
2022-09-27T04:21:18.727Z,7.50
2022-09-27T04:23:50.014Z,7.10
2022-09-27T04:26:17.912Z,6.70
2022-09-27T04:28:55.066Z,7.90
2022-09-27T04:31:22.522Z,11.50
2022-09-27T04:33:54.943Z,6.80
2022-09-27T04:36:33.361Z,6.40
2022-09-27T04:39:08.272Z,8.10
2022-09-27T04:41:37.709Z,6.90
2022-09-27T04:44:06.776Z,5.90
2022-09-27T04:46:35.099Z,8.20
2022-09-27T04:49:02.404Z,8.60
2022-09-27T04:51:30.582Z,10.90
2022-09-27T04:53:58.335Z,10.00
2022-09-27T04:56:28.877Z,12.70
2022-09-27T04:58:55.808Z,22.30
2022-09-27T05:01:23.224Z,25.50
2022-09-27T05:03:59.239Z,25.60
2022-09-27T05:06:27.091Z,28.10
2022-09-27T05:08:56.638Z,14.60
2022-09-27T05:11:28.166Z,16.90
2022-09-27T05:14:33.702Z,17.00
2022-09-27T05:17:30.177Z,15.90
2022-09-27T05:20:16.229Z,14.10
2022-09-27T05:22:51.643Z,15.10
2022-09-27T05:25:18.822Z,9.10
2022-09-27T05:27:46.076Z,11.80
2022-09-27T05:30:13.758Z,12.50
2022-09-27T05:32:58.607Z,21.10
2022-09-27T05:35:25.603Z,16.40
2022-09-27T05:37:57.202Z,24.50
2022-09-27T05:40:42.048Z,23.20
2022-09-27T05:43:10.754Z,12.50
2022-09-27T05:45:38.371Z,10.90
2022-09-27T05:48:06.680Z,10.00
2022-09-27T05:50:37.837Z,9.50
2022-09-27T05:53:05.396Z,12.50
2022-09-27T05:55:33.056Z,10.00
2022-09-27T05:58:01.970Z,10.10
2022-09-27T06:00:58.076Z,8.00
2022-09-27T06:03:41.418Z,8.50
2022-09-27T06:06:27.192Z,9.40
2022-09-27T06:08:56.135Z,9.70
2022-09-27T06:11:24.508Z,10.10
2022-09-27T06:13:52.429Z,10.10
2022-09-27T06:16:19.725Z,8.70
2022-09-27T06:18:46.654Z,6.20
2022-09-27T06:21:14.186Z,12.60
2022-09-27T06:23:47.989Z,11.80
2022-09-27T06:26:22.307Z,11.30
2022-09-27T06:28:59.326Z,12.00
2022-09-27T06:31:26.335Z,8.30
2022-09-27T06:34:03.628Z,5.20
2022-09-27T06:36:30.795Z,7.30
2022-09-27T06:38:58.230Z,8.40
2022-09-27T06:41:45.554Z,12.30
2022-09-27T06:44:20.586Z,7.50
2022-09-27T06:47:13.565Z,9.50
2022-09-27T06:49:49.711Z,9.70
2022-09-27T06:52:18.188Z,8.30
2022-09-27T06:54:45.388Z,9.30
2022-09-27T06:57:32.559Z,8.60
2022-09-27T07:00:18.447Z,9.50
2022-09-27T07:03:17.575Z,10.00
2022-09-27T07:06:01.761Z,9.70
2022-09-27T07:08:40.724Z,10.40
2022-09-27T07:11:07.872Z,6.70
2022-09-27T07:13:40.659Z,5.80
2022-09-27T07:16:08.183Z,9.50
2022-09-27T07:18:35.348Z,8.40
2022-09-27T07:21:02.408Z,8.00
2022-09-27T07:23:30.477Z,6.90
2022-09-27T07:26:04.472Z,7.40
2022-09-27T07:28:32.068Z,8.50
2022-09-27T07:30:59.864Z,5.90
2022-09-27T07:33:27.074Z,7.20
2022-09-27T07:35:54.066Z,7.30
2022-09-27T07:38:20.964Z,7.50
2022-09-27T07:40:48.256Z,9.10
2022-09-27T07:43:15.423Z,8.60
2022-09-27T07:45:42.561Z,8.20
2022-09-27T07:48:17.544Z,8.40
2022-09-27T07:51:11.109Z,6.10
2022-09-27T07:53:44.001Z,6.80
2022-09-27T07:56:30.096Z,6.90
2022-09-27T07:58:57.442Z,7.30
2022-09-27T08:01:24.497Z,9.90
2022-09-27T08:03:51.740Z,8.90
2022-09-27T08:06:20.939Z,9.90
2022-09-27T08:08:48.298Z,10.50
2022-09-27T08:11:16.207Z,9.60
2022-09-27T08:13:45.191Z,9.20
2022-09-27T08:16:14.489Z,8.70
2022-09-27T08:19:01.778Z,8.90
2022-09-27T08:21:43.576Z,13.40
2022-09-27T08:24:36.628Z,10.80
2022-09-27T08:27:15.815Z,15.80
2022-09-27T08:29:48.040Z,11.00
2022-09-27T08:32:18.331Z,10.10
2022-09-27T08:34:49.702Z,8.40
2022-09-27T08:37:16.757Z,7.20
2022-09-27T08:39:47.767Z,6.60
2022-09-27T08:42:37.007Z,12.60
2022-09-27T08:45:48.579Z,10.50
2022-09-27T08:48:15.790Z,10.10
2022-09-27T08:50:45.222Z,10.40
2022-09-27T08:53:13.889Z,11.30
2022-09-27T08:55:45.745Z,8.10
2022-09-27T08:58:40.991Z,7.60
2022-09-27T09:01:18.669Z,10.20
2022-09-27T09:04:11.998Z,14.40
2022-09-27T09:06:49.904Z,14.80
2022-09-27T09:09:28.691Z,11.20
2022-09-27T09:12:30.009Z,10.90
2022-09-27T09:15:54.437Z,6.80
2022-09-27T09:18:31.337Z,8.70
2022-09-27T09:21:43.267Z,8.40
2022-09-27T09:24:23.767Z,11.00
2022-09-27T09:27:02.766Z,11.30
2022-09-27T09:29:45.879Z,10.50
2022-09-27T09:32:39.641Z,12.90
2022-09-27T09:35:07.823Z,9.20
2022-09-27T09:37:44.428Z,10.40
2022-09-27T09:40:17.433Z,7.70
2022-09-27T09:43:13.885Z,10.30
2022-09-27T09:45:43.638Z,10.10
2022-09-27T09:48:52.251Z,12.80
2022-09-27T09:51:24.941Z,9.10
2022-09-27T09:53:57.468Z,11.50
2022-09-27T09:56:42.257Z,7.70
2022-09-27T09:59:16.012Z,8.60
2022-09-27T10:01:45.747Z,7.50
2022-09-27T10:04:20.422Z,13.40
2022-09-27T10:06:48.431Z,12.30
2022-09-27T10:09:23.102Z,9.20
2022-09-27T10:12:22.515Z,9.70
2022-09-27T10:14:50.434Z,7.70
2022-09-27T10:17:20.682Z,6.40
2022-09-27T10:19:48.790Z,5.50
2022-09-27T10:22:28.835Z,7.70
2022-09-27T10:24:59.663Z,7.00
2022-09-27T10:28:00.315Z,8.60
2022-09-27T10:30:32.594Z,9.80
2022-09-27T10:33:21.616Z,11.90
2022-09-27T10:35:53.541Z,10.10
2022-09-27T10:38:36.893Z,7.10
2022-09-27T10:41:18.507Z,7.50
2022-09-27T10:43:45.671Z,10.20
2022-09-27T10:46:29.195Z,9.80
2022-09-27T10:49:22.919Z,9.50
2022-09-27T10:51:56.189Z,10.00
2022-09-27T10:54:24.857Z,8.50
2022-09-27T10:57:25.301Z,7.90
2022-09-27T11:00:00.852Z,10.20
2022-09-27T11:02:31.252Z,9.70
2022-09-27T11:05:15.966Z,9.10
2022-09-27T11:07:50.694Z,10.30
2022-09-27T11:10:36.994Z,10.10
2022-09-27T11:13:15.966Z,9.10
2022-09-27T11:16:07.245Z,5.70
2022-09-27T11:18:37.300Z,8.60
2022-09-27T11:21:25.823Z,6.20
2022-09-27T11:24:19.196Z,8.10
2022-09-27T11:27:05.949Z,8.40
2022-09-27T11:29:41.247Z,8.00
2022-09-27T11:32:47.122Z,8.50
2022-09-27T11:35:33.840Z,10.60
2022-09-27T11:38:51.696Z,10.40
2022-09-27T11:41:30.285Z,6.20
2022-09-27T11:44:18.572Z,6.90
2022-09-27T11:47:08.815Z,7.50
2022-09-27T11:50:18.689Z,7.30
2022-09-27T11:53:25.066Z,8.30
2022-09-27T11:55:56.023Z,8.30
2022-09-27T11:58:30.235Z,6.80
2022-09-27T12:01:07.811Z,7.00
2022-09-27T12:04:11.203Z,9.50
2022-09-27T12:07:00.565Z,7.20
2022-09-27T12:09:33.556Z,8.00
2022-09-27T12:12:07.139Z,8.30
2022-09-27T12:14:56.542Z,8.70
2022-09-27T12:17:50.068Z,9.20
2022-09-27T12:20:21.990Z,8.00
2022-09-27T12:22:59.601Z,7.30
2022-09-27T12:25:47.368Z,7.30
2022-09-27T12:28:28.400Z,7.10
2022-09-27T12:31:24.531Z,11.90
2022-09-27T12:33:56.142Z,9.20
2022-09-27T12:36:25.443Z,9.20
2022-09-27T12:39:01.982Z,9.90
2022-09-27T12:41:32.133Z,9.60
2022-09-27T12:44:14.525Z,12.20
2022-09-27T12:47:15.994Z,11.20
2022-09-27T12:53:30.940Z,8.60
2022-09-27T12:55:59.079Z,10.30
2022-09-27T12:59:09.014Z,8.70
2022-09-27T13:02:05.415Z,11.00
2022-09-27T13:04:41.760Z,11.70
2022-09-27T13:07:41.233Z,13.10
2022-09-27T13:10:36.235Z,13.00
2022-09-27T13:13:12.294Z,12.30
2022-09-27T13:15:40.635Z,8.30
2022-09-27T13:18:38.644Z,15.60
2022-09-27T13:21:09.377Z,11.30
2022-09-27T13:23:39.809Z,13.20
2022-09-27T13:26:08.699Z,13.40
2022-09-27T13:28:48.962Z,11.30
2022-09-27T13:32:10.485Z,12.30
2022-09-27T13:34:54.216Z,13.00
2022-09-27T13:37:45.738Z,15.00
2022-09-27T13:40:16.692Z,12.40
2022-09-27T13:43:11.310Z,10.10
2022-09-27T13:45:51.970Z,10.30
2022-09-27T13:48:37.015Z,11.60
2022-09-27T13:51:10.132Z,12.70
2022-09-27T13:53:39.798Z,11.40
2022-09-27T13:56:31.038Z,12.40
2022-09-27T13:59:01.249Z,11.80
2022-09-27T14:02:21.187Z,11.30
2022-09-27T14:04:52.792Z,11.20
2022-09-27T14:07:34.689Z,8.90
2022-09-27T14:10:02.450Z,9.40
2022-09-27T14:12:36.490Z,14.40
2022-09-27T14:15:07.439Z,11.70
2022-09-27T14:17:35.463Z,11.80
2022-09-27T14:20:04.252Z,12.10
2022-09-27T14:22:31.718Z,12.80
2022-09-27T14:25:04.493Z,12.60
2022-09-27T14:27:39.230Z,13.70
2022-09-27T14:30:31.156Z,13.30
2022-09-27T14:33:31.737Z,9.80
2022-09-27T14:36:25.971Z,9.10
2022-09-27T14:38:59.262Z,10.80
2022-09-27T14:41:38.351Z,14.40
2022-09-27T14:44:05.748Z,11.60
2022-09-27T14:46:33.674Z,13.30
2022-09-27T14:49:32.205Z,12.00
2022-09-27T14:51:59.862Z,12.00
2022-09-27T14:54:30.907Z,14.60
2022-09-27T14:57:00.378Z,10.70
2022-09-27T14:59:34.966Z,12.60
2022-09-27T15:02:06.604Z,12.40
2022-09-27T15:04:34.297Z,13.90
2022-09-27T15:07:02.889Z,11.70
2022-09-27T15:09:33.109Z,12.50
2022-09-27T15:12:02.881Z,13.20
2022-09-27T15:14:31.982Z,13.80
2022-09-27T15:17:05.771Z,12.30
2022-09-27T15:19:35.939Z,10.70
2022-09-27T15:22:22.802Z,11.30
2022-09-27T15:24:51.444Z,11.60
2022-09-27T15:28:27.364Z,17.60
2022-09-27T15:30:58.900Z,16.30
2022-09-27T15:33:29.434Z,16.00
2022-09-27T15:36:03.011Z,17.00
2022-09-27T15:38:49.131Z,16.10
2022-09-27T15:41:21.516Z,11.50
2022-09-27T15:43:50.448Z,12.80
2022-09-27T15:46:24.029Z,26.30
2022-09-27T15:49:27.900Z,30.70
2022-09-27T15:51:56.075Z,29.00
2022-09-27T15:54:25.478Z,19.70
2022-09-27T15:56:55.604Z,17.40
2022-09-27T15:59:31.753Z,20.80
2022-09-27T16:02:04.210Z,19.00
2022-09-27T16:04:35.168Z,20.70
2022-09-27T16:07:03.039Z,18.60
2022-09-27T16:09:31.008Z,29.50
2022-09-27T16:11:58.460Z,16.50
2022-09-27T16:14:32.058Z,27.70
2022-09-27T16:17:00.550Z,15.20
2022-09-27T16:19:28.206Z,14.10
2022-09-27T16:21:55.771Z,15.50
2022-09-27T16:24:25.578Z,45.10
2022-09-27T16:26:53.065Z,82.10
2022-09-27T16:29:20.498Z,39.80
2022-09-27T16:31:48.086Z,55.70
2022-09-27T16:34:15.607Z,47.20
2022-09-27T16:36:43.485Z,33.80
2022-09-27T16:39:14.459Z,44.70
2022-09-27T16:41:42.607Z,30.70
2022-09-27T16:44:14.333Z,18.10
2022-09-27T16:46:42.659Z,20.80
2022-09-27T16:49:30.161Z,40.10
2022-09-27T16:52:00.843Z,32.90
2022-09-27T16:54:31.756Z,27.30
2022-09-27T16:56:59.398Z,34.30
2022-09-27T16:59:27.502Z,25.70
2022-09-27T17:01:58.225Z,65.20
2022-09-27T17:04:26.579Z,43.00
2022-09-27T17:06:55.103Z,32.20
2022-09-27T17:09:22.710Z,38.10
2022-09-27T17:11:50.166Z,34.60
2022-09-27T17:14:18.253Z,30.90
2022-09-27T17:16:46.623Z,21.30
2022-09-27T17:19:15.038Z,19.40
2022-09-27T17:21:43.990Z,17.80
2022-09-27T17:24:11.861Z,20.70
2022-09-27T17:26:42.317Z,19.50
2022-09-27T17:29:11.589Z,23.30
2022-09-27T17:31:40.655Z,25.30
2022-09-27T17:34:14.205Z,23.40
2022-09-27T17:36:45.654Z,19.90
2022-09-27T17:39:14.012Z,19.20
2022-09-27T17:41:44.223Z,20.70
2022-09-27T17:44:12.981Z,20.30
2022-09-27T17:46:40.694Z,22.00
2022-09-27T17:49:26.876Z,22.90
2022-09-27T17:51:54.689Z,19.60
2022-09-27T17:54:23.690Z,18.90
2022-09-27T17:56:51.500Z,33.70
2022-09-27T17:59:21.308Z,25.70
2022-09-27T18:01:49.134Z,66.40
2022-09-27T18:04:17.980Z,59.50
2022-09-27T18:06:46.669Z,56.00
2022-09-27T18:09:15.744Z,37.50
2022-09-27T18:11:43.710Z,31.20
2022-09-27T18:14:11.172Z,26.40
2022-09-27T18:16:43.305Z,26.00
2022-09-27T18:19:15.713Z,34.20
2022-09-27T18:21:43.664Z,38.50
2022-09-27T18:24:12.162Z,46.20
2022-09-27T18:26:40.789Z,38.20
2022-09-27T18:29:14.741Z,56.50
2022-09-27T18:31:48.002Z,144.10
2022-09-27T18:34:19.703Z,98.50
2022-09-27T18:36:47.270Z,69.50
2022-09-27T18:39:18.529Z,69.30
2022-09-27T18:41:48.832Z,106.70
2022-09-27T18:44:16.508Z,51.70
2022-09-27T18:46:44.448Z,59.30
2022-09-27T18:49:13.055Z,26.30
2022-09-27T18:51:45.002Z,25.30
2022-09-27T18:54:16.831Z,32.80
2022-09-27T18:56:44.635Z,46.30
2022-09-27T18:59:11.993Z,64.60
2022-09-27T19:01:45.701Z,38.80
2022-09-27T19:04:24.361Z,39.30
2022-09-27T19:06:55.559Z,39.70
2022-09-27T19:09:23.112Z,42.00
2022-09-27T19:11:50.674Z,42.50
2022-09-27T19:14:19.978Z,50.70
2022-09-27T19:16:48.509Z,51.60
2022-09-27T19:19:16.943Z,30.70
2022-09-27T19:21:44.805Z,37.60
2022-09-27T19:24:14.202Z,35.90
2022-09-27T19:26:41.979Z,34.30
2022-09-27T19:29:12.359Z,32.30
2022-09-27T19:31:41.872Z,35.90
2022-09-27T19:34:09.566Z,52.60
2022-09-27T19:36:37.118Z,36.20
2022-09-27T19:39:08.174Z,20.40
2022-09-27T19:41:35.618Z,35.50
2022-09-27T19:44:03.287Z,41.90
2022-09-27T19:46:30.714Z,49.20
2022-09-27T19:48:58.500Z,42.30
2022-09-27T19:51:27.381Z,44.20
2022-09-27T19:53:55.995Z,24.70
2022-09-27T19:56:23.994Z,31.60
2022-09-27T19:58:51.713Z,35.80
2022-09-27T20:01:21.285Z,35.70
2022-09-27T20:03:50.113Z,41.00
2022-09-27T20:06:19.415Z,41.80
2022-09-27T20:08:48.293Z,37.80
2022-09-27T20:11:17.617Z,25.80
2022-09-27T20:13:45.467Z,28.50
2022-09-27T20:16:41.377Z,32.90
2022-09-27T20:19:09.328Z,44.40
2022-09-27T20:21:37.122Z,31.80
2022-09-27T20:24:05.304Z,43.30
2022-09-27T20:26:34.895Z,44.80
2022-09-27T20:29:02.913Z,32.60
2022-09-27T20:31:34.018Z,32.70
2022-09-27T20:34:01.567Z,33.70
2022-09-27T20:36:40.295Z,33.70
2022-09-27T20:39:14.890Z,32.80
2022-09-27T20:41:46.775Z,41.90
2022-09-27T20:44:15.974Z,37.90
2022-09-27T20:46:47.266Z,27.90
2022-09-27T20:49:18.976Z,34.00
2022-09-27T20:51:51.575Z,46.80
2022-09-27T20:54:19.018Z,45.00
2022-09-27T20:56:47.766Z,44.60
2022-09-27T20:59:20.378Z,38.30
2022-09-27T21:01:49.541Z,40.30
2022-09-27T21:04:18.362Z,31.80
2022-09-27T21:06:46.030Z,30.80
2022-09-27T21:09:19.061Z,27.30
2022-09-27T21:11:52.676Z,27.80
2022-09-27T21:16:47.423Z,23.90
2022-09-27T21:19:14.831Z,26.20
2022-09-27T21:21:42.447Z,20.00
2022-09-27T21:24:09.894Z,17.10
2022-09-27T21:26:37.358Z,24.60
2022-09-27T21:29:09.213Z,21.70
2022-09-27T21:31:38.422Z,29.30
2022-09-27T21:34:06.088Z,27.50
2022-09-27T21:36:35.370Z,25.90
2022-09-27T21:39:03.443Z,18.20
2022-09-27T21:41:30.903Z,21.80
2022-09-27T21:43:58.361Z,25.10
2022-09-27T21:46:29.966Z,38.20
2022-09-27T21:48:59.151Z,30.50
2022-09-27T21:51:32.503Z,35.60
2022-09-27T21:54:01.194Z,32.10
2022-09-27T21:56:30.182Z,16.10
2022-09-27T21:58:57.639Z,19.40
2022-09-27T22:01:27.047Z,31.70
2022-09-27T22:03:57.262Z,24.10
2022-09-27T22:06:29.440Z,34.30
2022-09-27T22:08:59.036Z,25.80
2022-09-27T22:11:31.205Z,52.60
2022-09-27T22:13:58.970Z,16.00
2022-09-27T22:16:27.302Z,17.20
2022-09-27T22:18:56.243Z,21.20
2022-09-27T22:21:26.253Z,23.10
2022-09-27T22:23:58.318Z,39.70
2022-09-27T22:26:27.627Z,40.60
2022-09-27T22:28:55.181Z,39.60
2022-09-27T22:31:23.629Z,28.00
2022-09-27T22:33:55.422Z,36.90
2022-09-27T22:36:24.995Z,45.50
2022-09-27T22:38:52.687Z,32.00
2022-09-27T22:41:20.766Z,32.70
2022-09-27T22:43:48.319Z,28.30
2022-09-27T22:46:15.807Z,25.90
2022-09-27T22:48:43.232Z,10.20
2022-09-27T22:51:10.687Z,12.30
2022-09-27T22:53:40.283Z,13.90
2022-09-27T22:56:19.453Z,15.80
2022-09-27T22:58:47.834Z,21.50
2022-09-27T23:01:20.745Z,20.50
2022-09-27T23:03:49.561Z,30.40
2022-09-27T23:06:18.324Z,17.30
2022-09-27T23:08:45.824Z,11.90
2022-09-27T23:11:14.818Z,11.40
2022-09-27T23:13:42.901Z,13.50
2022-09-27T23:16:13.070Z,12.80
2022-09-27T23:18:40.573Z,16.10
2022-09-27T23:21:11.153Z,18.20
2022-09-27T23:23:41.624Z,10.20
2022-09-27T23:26:11.177Z,12.30
2022-09-27T23:28:38.702Z,14.50
2022-09-27T23:31:08.633Z,13.90
2022-09-27T23:33:37.392Z,13.30
2022-09-27T23:36:05.840Z,14.20
2022-09-27T23:38:33.228Z,12.60
2022-09-27T23:41:00.790Z,9.70
2022-09-27T23:43:28.759Z,10.60
2022-09-27T23:45:57.649Z,13.10
2022-09-27T23:48:26.025Z,9.80
2022-09-27T23:50:53.585Z,9.80
2022-09-27T23:53:21.246Z,9.70
2022-09-27T23:55:50.342Z,15.70
2022-09-27T23:58:18.270Z,8.40
